WETTERDATEN

GESTERN
Time Temp. Taup. r.Fe. Windrich Windstärke Windböe Druck 1h Prec. 24h Prec.
00:01 14.2 11.5 84 0 0 1019 0.0000 0.0000
00:11 14.1 11.4 84 0 0 1019 0.0000 0.0000
00:22 14.1 11.4 84 0 0 1019 0.0000 0.0000
00:32 14.1 11.4 84 0 0 1019 0.0000 0.0000
00:41 14 11.3 84 0 0 1018.9 0.0000 0.0000
00:52 14 11.3 84 0 0 1018.9 0.0000 0.0000
01:02 13.8 11.1 84 0 0 1018.9 0.0000 0.0000
01:12 13.7 11 84 0 0 1018.8 0.0000 0.0000
01:22 13.6 11 84 0 0 1018.7 0.0000 0.0000
01:33 13.6 11 84 0 0 1018.7 0.0000 0.0000
01:42 13.5 11 85 0 0 1018.6 0.0000 0.0000
01:52 13.5 11 85 0 0 1018.6 0.0000 0.0000
02:02 13.4 10.9 85 0 0 1018.6 0.0000 0.0000
02:13 13.4 10.9 85 0 0 1018.6 0.0000 0.0000
02:23 13.4 10.9 85 0 0 1018.4 0.0000 0.0000
02:32 13.3 10.8 85 0 0 1018.4 0.0000 0.0000
02:43 13.2 10.7 85 0 0 1018.5 0.0000 0.0000
02:53 13 10.5 85 0 0 1018.6 0.0000 0.0000
03:03 12.9 10.4 85 0 0 1018.4 0.0000 0.0000
03:13 12.8 10.3 85 0 0 1018.4 0.0000 0.0000
03:24 12.7 10.2 85 0 0 1018.4 0.0000 0.0000
03:33 12.6 10.1 85 0 0 1018.4 0.0000 0.0000
03:43 12.5 10 85 0 0 1018.4 0.0000 0.0000
03:54 12.4 10 85 0 0 1018.4 0.0000 0.0000
04:04 12.3 9.9 85 0 0 1018.4 0.0000 0.0000
04:14 12.3 9.9 85 0 0 1018.5 0.0000 0.0000
04:24 12.3 9.9 85 0 0 1018.4 0.0000 0.0000
04:34 12.2 9.8 85 0 0 1018.4 0.0000 0.0000
04:44 12 9.6 85 0 0 1018.3 0.0000 0.0000
04:54 12 9.6 85 0 0 1018.2 0.0000 0.0000
05:05 12 9.6 85 0 0 1018.3 0.0000 0.0000
05:15 11.9 9.5 85 0 0 1018.2 0.0000 0.0000
05:24 11.9 9.5 85 0 0 1018.3 0.0000 0.0000
05:34 11.8 9.4 85 0 0 1018.3 0.0000 0.0000
05:45 11.8 9.4 85 0 0 1018.3 0.0000 0.0000
05:55 11.8 9.5 86 0 0 1018.4 0.0000 0.0000
06:05 11.9 9.6 86 0 0 1018.3 0.0000 0.0000
06:15 11.9 9.6 86 0 0 1018.4 0.0000 0.0000
06:25 11.9 9.6 86 0 0 1018.4 0.0000 0.0000
06:35 11.9 9.6 86 0 0 1018.4 0.0000 0.0000
06:45 11.9 9.6 86 0 0 1018.4 0.0000 0.0000
06:56 11.9 9.5 85 0 0 1018.6 0.0000 0.0000
07:06 11.9 9.5 85 0 0 1018.6 0.0000 0.0000
07:15 11.9 9.5 85 0 0 1018.6 0.0000 0.0000
07:25 12 9.6 85 0 0 1018.5 0.0000 0.0000
07:36 11.9 9.5 85 0 0 1018.5 0.0000 0.0000
07:46 12 9.6 85 0 0 1018.5 0.0000 0.0000
07:56 12 9.6 85 0 0 1018.6 0.0000 0.0000
08:06 12 9.6 85 0 0 1018.6 0.0000 0.0000
08:16 12 9.6 85 0 0 1018.6 0.0000 0.0000
08:26 12.1 9.7 85 0 0 1018.6 0.0000 0.0000
08:36 12.1 9.7 85 0 0 1018.5 0.0000 0.0000
08:47 12.2 9.8 85 0 0 1018.5 0.0000 0.0000
08:57 12.2 9.8 85 0 0 1018.6 0.0000 0.0000
09:06 12.2 9.8 85 0 0 1018.6 0.0000 0.0000
09:17 12.3 9.9 85 0 0 1018.4 0.0000 0.0000
09:27 12.4 10 85 0 0 1018.4 0.0000 0.0000
09:37 12.4 10 85 0 0 1018.5 0.0000 0.0000
09:47 12.5 10 85 0 0 1018.7 0.0000 0.0000
09:57 12.6 10.1 85 0 0 1018.7 0.0000 0.0000
10:07 12.7 10.2 85 0 0 1018.8 0.0000 0.0000
10:17 12.8 10.3 85 0 0 1018.9 0.0000 0.0000
10:27 12.8 10.3 85 0 0 1018.9 0.0000 0.0000
10:38 12.9 10.4 85 0 0 1018.9 0.0000 0.0000
10:48 13 10.5 85 0 0 1018.9 0.0000 0.0000
10:57 13.2 10.7 85 0 0 1019 0.0000 0.0000
11:08 13.2 10.6 84 0 0 1019 0.0000 0.0000
11:18 13.3 10.7 84 0 0 1019 0.0000 0.0000
11:28 13.4 10.8 84 0 0 1019 0.0000 0.0000
11:38 13.6 11 84 0 0 1019 0.0000 0.0000
11:48 13.7 10.9 83 0 0 1019 0.0000 0.0000
11:58 13.8 11 83 0 0 1019 0.0000 0.0000
12:08 14 11.2 83 0 0 1018.9 0.0000 0.0000
12:19 14.1 11.1 82 0 0 1018.9 0.0000 0.0000
12:29 14.1 10.9 81 0 0 1019 0.0000 0.0000
12:39 14.2 11 81 0 0 1019 0.0000 0.0000
12:48 14.3 11.1 81 0 0 1018.9 0.0000 0.0000
12:59 14.4 11 80 0 0 1018.9 0.0000 0.0000
13:09 14.4 10.8 79 0 0 1018.9 0.0000 0.0000
13:19 14.4 10.8 79 0 0 1018.9 0.0000 0.0000
13:30 14.6 10.8 78 0 0 1018.9 0.0000 0.0000
13:39 14.5 10.5 77 0 0 1018.8 0.0000 0.0000
13:49 14.6 10.6 77 0 0 1018.6 0.0000 0.0000
13:59 14.6 10.4 76 0 0 1018.6 0.0000 0.0000
14:10 14.7 10.3 75 0 0 1018.6 0.0000 0.0000
14:20 14.7 10.1 74 0 0 1018.5 0.0000 0.0000
14:30 14.7 10.1 74 0 0 1018.6 0.0000 0.0000
14:40 14.7 10.1 74 0 0 1018.5 0.0000 0.0000
14:50 14.7 10.1 74 0 0 1018.5 0.0000 0.0000
15:00 14.7 9.9 73 0 0 1018.4 0.0000 0.0000
15:10 14.7 9.9 73 0 0 1018.4 0.0000 0.0000
15:21 14.8 10 73 0 0 1018.4 0.0000 0.0000
15:30 14.8 9.8 72 0 0 1018.4 0.0000 0.0000
15:40 14.7 9.7 72 0 0 1018.3 0.0000 0.0000
15:50 14.7 9.7 72 0 0 1018.4 0.0000 0.0000
16:01 14.7 9.5 71 0 0 1018.4 0.0000 0.0000
16:11 14.7 9.7 72 0 0 1018.3 0.0000 0.0000
16:21 14.7 9.5 71 0 0 1018.4 0.0000 0.0000
16:31 14.8 9.6 71 0 0 1018.3 0.0000 0.0000
16:41 14.8 9.6 71 0 0 1018.3 0.0000 0.0000
16:51 14.8 9.8 72 0 0 1018.3 0.0000 0.0000
17:01 14.9 9.7 71 0 0 1018.2 0.0000 0.0000
17:12 14.9 9.7 71 0 0 1018.2 0.0000 0.0000
17:21 14.9 9.7 71 0 0 1018.2 0.0000 0.0000
17:31 14.9 9.7 71 0 0 1018.1 0.0000 0.0000
17:42 14.8 9.6 71 0 0 1018.1 0.0000 0.0000
17:52 14.7 9.5 71 0 0 1018.1 0.0000 0.0000
18:02 14.7 9.5 71 0 0 1017.9 0.0000 0.0000
18:12 14.6 9.6 72 0 0 1018 0.0000 0.0000
18:22 14.6 9.6 72 0 0 1018.1 0.0000 0.0000
18:32 14.5 9.5 72 0 0 1018.1 0.0000 0.0000
18:42 14.4 9.6 73 0 0 1018.2 0.0000 0.0000
18:53 14.3 9.5 73 0 0 1018.2 0.0000 0.0000
19:03 14.3 9.7 74 0 0 1018.2 0.0000 0.0000
19:11 14.2 9.6 74 0 0 1018.3 0.0000 0.0000
19:22 14 9.4 74 0 0 1018.3 0.0000 0.0000
19:33 13.9 9.5 75 0 0 1018.3 0.0000 0.0000
19:43 13.9 9.5 75 0 0 1018.4 0.0000 0.0000
19:53 13.8 9.5 75 0 0 1018.6 0.0000 0.0000
20:03 13.7 9.4 75 0 0 1018.5 0.0000 0.0000
20:13 13.6 9.3 75 0 0 1018.7 0.0000 0.0000
20:23 13.6 9.5 76 0 0 1018.8 0.0000 0.0000
20:33 13.5 9.4 76 0 0 1018.8 0.0000 0.0000
20:44 13.4 9.3 76 0 0 1018.8 0.0000 0.0000
20:53 13.4 9.3 76 0 0 1018.9 0.0000 0.0000
21:03 13.3 9.2 76 0 0 1018.9 0.0000 0.0000
21:13 13.2 9.1 76 0 0 1018.9 0.0000 0.0000
21:24 13.2 9.3 77 0 0 1019 0.0000 0.0000
21:34 13.1 9.2 77 0 0 1018.9 0.0000 0.0000
21:44 13 9.1 77 0 0 1019 0.0000 0.0000
21:54 13 9.1 77 0 0 1019.1 0.0000 0.0000
22:04 12.9 9 77 0 0 1019.1 0.0000 0.0000
22:14 12.9 9 77 0 0 1019.1 0.0000 0.0000
22:24 12.9 9 77 0 0 1019.1 0.0000 0.0000
22:35 12.8 8.9 77 0 0 1019.2 0.0000 0.0000
22:44 12.8 8.9 77 0 0 1019.3 0.0000 0.0000
22:54 12.8 8.9 77 0 0 1019.3 0.0000 0.0000
23:05 12.7 8.8 77 0 0 1019.4 0.0000 0.0000
23:15 12.7 8.8 77 0 0 1019.4 0.0000 0.0000
23:25 12.7 8.8 77 0 0 1019.4 0.0000 0.0000
23:34 12.7 8.8 77 0 0 1019.4 0.0000 0.0000
23:45 12.6 8.7 77 0 0 1019.4 0.0000 0.0000
23:55 12.6 8.7 77 0 0 1019.4 0.0000 0.0000

TAGESSTATISTIK

2021-09-19
TEMPERATUR
MITTEL
13.4
MAXIMUM
14.9
17:01
MINIMUM
11.8
05:34
LUFTDRUCK
MITTEL
1018.6
MAXIMUM
1019.4
23:05
MINIMUM
1017.9
18:02
TAUPUNKT
MITTEL
10.0
MAXIMUM
11.5
00:01
MINIMUM
8.7
23:45
FEUCHTIGKEIT
MITTEL
80
MAXIMUM
86
05:55
MINIMUM
71
16:01
WINDSTÄRKE
MITTEL
0.0
MAXIMUM
0.0
08:38
WINDBÖE
MITTEL
0.0
MAXIMUM
0.0
08:38
WINDRICHTUNG
VORHERRSCHENDE
%
NIEDERSCHLAG
REGEN STUNDE
0.0
REGEN TAG
0.0
TEMPERATUR (°C)
MINIMUM
11.8
MAXIMUM
14.9
MITTEL
13.4
LUFTDRUCK (hpa)
MINIMUM
1017.9
MAXIMUM
1019.4
MITTEL
1018.6
MESSGERÄT